sensor_id;sensor_type;location;lat;lon;timestamp;temperature;humidity
3550;DHT22;45572;48.804;8.330;2023-08-12T00:02:13;21.10;89.20
3550;DHT22;45572;48.804;8.330;2023-08-12T00:04:40;21.10;89.20
3550;DHT22;45572;48.804;8.330;2023-08-12T00:07:08;21.20;89.30
3550;DHT22;45572;48.804;8.330;2023-08-12T00:09:36;21.20;89.30
3550;DHT22;45572;48.804;8.330;2023-08-12T00:12:05;21.30;89.30
3550;DHT22;45572;48.804;8.330;2023-08-12T00:14:33;21.30;89.30
3550;DHT22;45572;48.804;8.330;2023-08-12T00:17:01;21.30;89.30
3550;DHT22;45572;48.804;8.330;2023-08-12T00:19:29;21.30;89.20
3550;DHT22;45572;48.804;8.330;2023-08-12T00:21:57;21.30;89.20
3550;DHT22;45572;48.804;8.330;2023-08-12T00:24:24;21.30;89.10
3550;DHT22;45572;48.804;8.330;2023-08-12T00:26:52;21.30;89.30
3550;DHT22;45572;48.804;8.330;2023-08-12T00:29:21;21.30;89.50
3550;DHT22;45572;48.804;8.330;2023-08-12T00:31:49;21.30;89.40
3550;DHT22;45572;48.804;8.330;2023-08-12T00:34:17;21.30;89.40
3550;DHT22;45572;48.804;8.330;2023-08-12T00:36:45;21.20;89.50
3550;DHT22;45572;48.804;8.330;2023-08-12T00:39:13;21.30;89.40
3550;DHT22;45572;48.804;8.330;2023-08-12T00:41:41;21.30;89.40
3550;DHT22;45572;48.804;8.330;2023-08-12T00:44:08;21.20;89.70
3550;DHT22;45572;48.804;8.330;2023-08-12T00:46:38;21.30;89.50
3550;DHT22;45572;48.804;8.330;2023-08-12T00:49:08;21.20;89.40
3550;DHT22;45572;48.804;8.330;2023-08-12T00:51:37;21.30;89.40
3550;DHT22;45572;48.804;8.330;2023-08-12T00:54:06;21.30;89.30
3550;DHT22;45572;48.804;8.330;2023-08-12T00:56:35;21.30;89.20
3550;DHT22;45572;48.804;8.330;2023-08-12T00:59:05;21.30;89.30
3550;DHT22;45572;48.804;8.330;2023-08-12T01:01:35;21.30;89.30
3550;DHT22;45572;48.804;8.330;2023-08-12T01:04:07;21.20;89.60
3550;DHT22;45572;48.804;8.330;2023-08-12T01:06:35;21.10;90.00
3550;DHT22;45572;48.804;8.330;2023-08-12T01:09:04;20.90;89.90
3550;DHT22;45572;48.804;8.330;2023-08-12T01:11:36;21.00;88.90
3550;DHT22;45572;48.804;8.330;2023-08-12T01:14:11;20.90;87.00
3550;DHT22;45572;48.804;8.330;2023-08-12T01:16:44;21.10;86.40
3550;DHT22;45572;48.804;8.330;2023-08-12T01:19:22;21.30;85.20
3550;DHT22;45572;48.804;8.330;2023-08-12T01:21:53;21.50;85.10
3550;DHT22;45572;48.804;8.330;2023-08-12T01:24:24;21.60;85.10
3550;DHT22;45572;48.804;8.330;2023-08-12T01:26:52;21.70;85.00
3550;DHT22;45572;48.804;8.330;2023-08-12T01:29:22;21.90;86.00
3550;DHT22;45572;48.804;8.330;2023-08-12T01:31:55;21.90;87.00
3550;DHT22;45572;48.804;8.330;2023-08-12T01:34:36;21.70;87.70
3550;DHT22;45572;48.804;8.330;2023-08-12T01:37:08;21.60;88.20
3550;DHT22;45572;48.804;8.330;2023-08-12T01:39:41;21.50;88.70
3550;DHT22;45572;48.804;8.330;2023-08-12T01:42:10;21.50;88.80
3550;DHT22;45572;48.804;8.330;2023-08-12T01:44:38;21.50;88.90
3550;DHT22;45572;48.804;8.330;2023-08-12T01:47:07;21.50;89.00
3550;DHT22;45572;48.804;8.330;2023-08-12T01:49:36;21.50;89.10
3550;DHT22;45572;48.804;8.330;2023-08-12T01:52:04;21.50;89.00
3550;DHT22;45572;48.804;8.330;2023-08-12T01:54:32;21.50;88.80
3550;DHT22;45572;48.804;8.330;2023-08-12T01:57:03;21.40;88.60
3550;DHT22;45572;48.804;8.330;2023-08-12T01:59:32;21.50;86.90
3550;DHT22;45572;48.804;8.330;2023-08-12T02:02:00;21.50;87.90
3550;DHT22;45572;48.804;8.330;2023-08-12T02:04:29;21.50;88.30
3550;DHT22;45572;48.804;8.330;2023-08-12T02:06:58;21.50;88.70
3550;DHT22;45572;48.804;8.330;2023-08-12T02:09:26;21.50;88.80
3550;DHT22;45572;48.804;8.330;2023-08-12T02:11:54;21.50;89.00
3550;DHT22;45572;48.804;8.330;2023-08-12T02:14:23;21.30;89.10
3550;DHT22;45572;48.804;8.330;2023-08-12T02:16:51;21.30;89.60
3550;DHT22;45572;48.804;8.330;2023-08-12T02:19:20;21.30;89.30
3550;DHT22;45572;48.804;8.330;2023-08-12T02:21:48;21.30;89.20
3550;DHT22;45572;48.804;8.330;2023-08-12T02:24:16;21.30;89.40
3550;DHT22;45572;48.804;8.330;2023-08-12T02:26:44;21.40;89.30
3550;DHT22;45572;48.804;8.330;2023-08-12T02:29:13;21.40;89.40
3550;DHT22;45572;48.804;8.330;2023-08-12T02:31:42;21.40;89.00
3550;DHT22;45572;48.804;8.330;2023-08-12T02:34:10;21.40;88.80
3550;DHT22;45572;48.804;8.330;2023-08-12T02:36:37;21.20;88.90
3550;DHT22;45572;48.804;8.330;2023-08-12T02:39:05;21.30;88.50
3550;DHT22;45572;48.804;8.330;2023-08-12T02:41:33;21.40;88.40
3550;DHT22;45572;48.804;8.330;2023-08-12T02:44:01;21.50;88.40
3550;DHT22;45572;48.804;8.330;2023-08-12T02:46:29;21.50;88.50
3550;DHT22;45572;48.804;8.330;2023-08-12T02:48:58;21.50;88.70
3550;DHT22;45572;48.804;8.330;2023-08-12T02:51:25;21.50;88.70
3550;DHT22;45572;48.804;8.330;2023-08-12T02:53:53;21.50;88.50
3550;DHT22;45572;48.804;8.330;2023-08-12T02:56:21;21.50;88.50
3550;DHT22;45572;48.804;8.330;2023-08-12T02:58:49;21.50;88.60
3550;DHT22;45572;48.804;8.330;2023-08-12T03:01:16;21.50;88.70
3550;DHT22;45572;48.804;8.330;2023-08-12T03:03:45;21.50;89.20
3550;DHT22;45572;48.804;8.330;2023-08-12T03:06:14;21.50;89.50
3550;DHT22;45572;48.804;8.330;2023-08-12T03:08:41;21.40;89.70
3550;DHT22;45572;48.804;8.330;2023-08-12T03:11:09;21.10;90.20
3550;DHT22;45572;48.804;8.330;2023-08-12T03:13:37;21.10;90.80
3550;DHT22;45572;48.804;8.330;2023-08-12T03:16:11;21.00;90.80
3550;DHT22;45572;48.804;8.330;2023-08-12T03:18:40;21.00;90.90
3550;DHT22;45572;48.804;8.330;2023-08-12T03:21:09;21.10;90.90
3550;DHT22;45572;48.804;8.330;2023-08-12T03:23:40;21.10;90.90
3550;DHT22;45572;48.804;8.330;2023-08-12T03:26:09;21.10;91.00
3550;DHT22;45572;48.804;8.330;2023-08-12T03:28:37;21.10;90.90
3550;DHT22;45572;48.804;8.330;2023-08-12T03:31:07;21.10;90.80
3550;DHT22;45572;48.804;8.330;2023-08-12T03:33:35;21.00;90.90
3550;DHT22;45572;48.804;8.330;2023-08-12T03:36:04;21.00;91.00
3550;DHT22;45572;48.804;8.330;2023-08-12T03:38:31;21.10;90.90
3550;DHT22;45572;48.804;8.330;2023-08-12T03:41:01;21.10;90.80
3550;DHT22;45572;48.804;8.330;2023-08-12T03:43:30;21.00;91.00
3550;DHT22;45572;48.804;8.330;2023-08-12T03:46:00;21.00;88.40
3550;DHT22;45572;48.804;8.330;2023-08-12T03:48:28;21.10;88.40
3550;DHT22;45572;48.804;8.330;2023-08-12T03:50:57;21.10;88.80
3550;DHT22;45572;48.804;8.330;2023-08-12T03:53:25;21.10;88.90
3550;DHT22;45572;48.804;8.330;2023-08-12T03:55:55;21.30;88.70
3550;DHT22;45572;48.804;8.330;2023-08-12T03:58:25;21.30;88.30
3550;DHT22;45572;48.804;8.330;2023-08-12T04:00:53;21.20;89.00
3550;DHT22;45572;48.804;8.330;2023-08-12T04:03:21;21.10;88.90
3550;DHT22;45572;48.804;8.330;2023-08-12T04:05:50;21.00;90.50
3550;DHT22;45572;48.804;8.330;2023-08-12T04:08:19;20.80;91.10
3550;DHT22;45572;48.804;8.330;2023-08-12T04:10:47;20.80;91.80
3550;DHT22;45572;48.804;8.330;2023-08-12T04:13:15;20.70;92.40
3550;DHT22;45572;48.804;8.330;2023-08-12T04:15:48;20.60;92.80
3550;DHT22;45572;48.804;8.330;2023-08-12T04:18:16;20.60;93.50
3550;DHT22;45572;48.804;8.330;2023-08-12T04:20:45;20.50;94.10
3550;DHT22;45572;48.804;8.330;2023-08-12T04:23:14;20.60;94.00
3550;DHT22;45572;48.804;8.330;2023-08-12T04:25:43;20.60;94.10
3550;DHT22;45572;48.804;8.330;2023-08-12T04:28:12;20.70;94.00
3550;DHT22;45572;48.804;8.330;2023-08-12T04:30:41;20.70;94.00
3550;DHT22;45572;48.804;8.330;2023-08-12T04:33:11;20.70;94.20
3550;DHT22;45572;48.804;8.330;2023-08-12T04:35:40;20.70;94.30
3550;DHT22;45572;48.804;8.330;2023-08-12T04:38:09;20.70;94.40
3550;DHT22;45572;48.804;8.330;2023-08-12T04:40:38;20.70;94.30
3550;DHT22;45572;48.804;8.330;2023-08-12T04:43:07;20.70;94.40
3550;DHT22;45572;48.804;8.330;2023-08-12T04:45:35;20.70;94.40
3550;DHT22;45572;48.804;8.330;2023-08-12T04:48:05;20.80;94.10
3550;DHT22;45572;48.804;8.330;2023-08-12T04:50:35;20.80;93.80
3550;DHT22;45572;48.804;8.330;2023-08-12T04:53:03;20.80;94.00
3550;DHT22;45572;48.804;8.330;2023-08-12T04:55:31;20.80;93.50
3550;DHT22;45572;48.804;8.330;2023-08-12T04:58:01;20.70;93.80
3550;DHT22;45572;48.804;8.330;2023-08-12T05:00:29;20.70;93.80
3550;DHT22;45572;48.804;8.330;2023-08-12T05:02:58;20.60;94.10
3550;DHT22;45572;48.804;8.330;2023-08-12T05:05:26;20.60;94.70
3550;DHT22;45572;48.804;8.330;2023-08-12T05:07:55;20.70;94.70
3550;DHT22;45572;48.804;8.330;2023-08-12T05:10:23;20.70;94.60
3550;DHT22;45572;48.804;8.330;2023-08-12T05:12:51;20.80;94.20
3550;DHT22;45572;48.804;8.330;2023-08-12T05:15:21;20.90;94.10
3550;DHT22;45572;48.804;8.330;2023-08-12T05:17:49;20.70;94.40
3550;DHT22;45572;48.804;8.330;2023-08-12T05:20:20;20.80;94.40
3550;DHT22;45572;48.804;8.330;2023-08-12T05:22:48;20.90;94.30
3550;DHT22;45572;48.804;8.330;2023-08-12T05:25:17;21.00;94.10
3550;DHT22;45572;48.804;8.330;2023-08-12T05:27:45;21.00;94.00
3550;DHT22;45572;48.804;8.330;2023-08-12T05:30:13;21.00;94.20
3550;DHT22;45572;48.804;8.330;2023-08-12T05:32:41;21.10;94.10
3550;DHT22;45572;48.804;8.330;2023-08-12T05:35:09;21.10;94.00
3550;DHT22;45572;48.804;8.330;2023-08-12T05:37:37;21.10;93.80
3550;DHT22;45572;48.804;8.330;2023-08-12T05:40:07;21.20;93.00
3550;DHT22;45572;48.804;8.330;2023-08-12T05:42:39;21.20;92.90
3550;DHT22;45572;48.804;8.330;2023-08-12T05:45:09;21.40;92.00
3550;DHT22;45572;48.804;8.330;2023-08-12T05:47:37;21.50;91.60
3550;DHT22;45572;48.804;8.330;2023-08-12T05:50:05;21.60;90.80
3550;DHT22;45572;48.804;8.330;2023-08-12T05:52:34;21.70;91.40
3550;DHT22;45572;48.804;8.330;2023-08-12T05:55:02;21.80;91.30
3550;DHT22;45572;48.804;8.330;2023-08-12T05:57:32;21.80;91.60
3550;DHT22;45572;48.804;8.330;2023-08-12T06:00:01;21.90;91.30
3550;DHT22;45572;48.804;8.330;2023-08-12T06:03:00;21.90;91.10
3550;DHT22;45572;48.804;8.330;2023-08-12T06:05:28;21.80;89.90
3550;DHT22;45572;48.804;8.330;2023-08-12T06:07:56;21.90;89.80
3550;DHT22;45572;48.804;8.330;2023-08-12T06:10:24;22.00;90.80
3550;DHT22;45572;48.804;8.330;2023-08-12T06:12:52;22.20;89.30
3550;DHT22;45572;48.804;8.330;2023-08-12T06:15:20;22.30;88.40
3550;DHT22;45572;48.804;8.330;2023-08-12T06:17:47;22.50;88.70
3550;DHT22;45572;48.804;8.330;2023-08-12T06:20:17;22.70;88.80
3550;DHT22;45572;48.804;8.330;2023-08-12T06:22:45;22.90;89.20
3550;DHT22;45572;48.804;8.330;2023-08-12T06:25:12;23.10;89.30
3550;DHT22;45572;48.804;8.330;2023-08-12T06:27:40;23.40;88.40
3550;DHT22;45572;48.804;8.330;2023-08-12T06:30:09;23.90;86.20
3550;DHT22;45572;48.804;8.330;2023-08-12T06:32:37;24.40;85.20
3550;DHT22;45572;48.804;8.330;2023-08-12T06:35:05;25.10;83.20
3550;DHT22;45572;48.804;8.330;2023-08-12T06:37:34;25.40;81.10
3550;DHT22;45572;48.804;8.330;2023-08-12T06:40:02;25.70;79.50
3550;DHT22;45572;48.804;8.330;2023-08-12T06:42:30;25.80;80.10
3550;DHT22;45572;48.804;8.330;2023-08-12T06:44:59;25.90;79.20
3550;DHT22;45572;48.804;8.330;2023-08-12T06:47:27;26.20;77.80
3550;DHT22;45572;48.804;8.330;2023-08-12T06:49:56;27.00;76.30
3550;DHT22;45572;48.804;8.330;2023-08-12T06:52:24;28.30;74.30
3550;DHT22;45572;48.804;8.330;2023-08-12T06:54:53;28.70;72.10
3550;DHT22;45572;48.804;8.330;2023-08-12T06:57:21;29.40;68.80
3550;DHT22;45572;48.804;8.330;2023-08-12T06:59:49;29.20;68.80
3550;DHT22;45572;48.804;8.330;2023-08-12T07:02:16;28.50;69.90
3550;DHT22;45572;48.804;8.330;2023-08-12T07:04:44;28.30;71.50
3550;DHT22;45572;48.804;8.330;2023-08-12T07:07:12;27.60;72.40
3550;DHT22;45572;48.804;8.330;2023-08-12T07:09:40;27.60;73.50
3550;DHT22;45572;48.804;8.330;2023-08-12T07:12:09;28.40;72.50
3550;DHT22;45572;48.804;8.330;2023-08-12T07:14:37;29.70;69.70
3550;DHT22;45572;48.804;8.330;2023-08-12T07:17:05;30.40;66.60
3550;DHT22;45572;48.804;8.330;2023-08-12T07:19:33;31.10;65.60
3550;DHT22;45572;48.804;8.330;2023-08-12T07:22:00;32.30;63.10
3550;DHT22;45572;48.804;8.330;2023-08-12T07:24:28;33.90;61.60
3550;DHT22;45572;48.804;8.330;2023-08-12T07:26:56;35.50;56.60
3550;DHT22;45572;48.804;8.330;2023-08-12T07:29:25;36.30;52.90
3550;DHT22;45572;48.804;8.330;2023-08-12T07:31:53;36.00;53.00
3550;DHT22;45572;48.804;8.330;2023-08-12T07:34:20;35.70;53.70
3550;DHT22;45572;48.804;8.330;2023-08-12T07:36:48;35.40;54.90
3550;DHT22;45572;48.804;8.330;2023-08-12T07:39:16;35.20;55.70
3550;DHT22;45572;48.804;8.330;2023-08-12T07:41:44;35.50;55.70
3550;DHT22;45572;48.804;8.330;2023-08-12T07:44:11;36.40;54.30
3550;DHT22;45572;48.804;8.330;2023-08-12T07:46:41;37.10;51.60
3550;DHT22;45572;48.804;8.330;2023-08-12T07:49:09;37.70;51.40
3550;DHT22;45572;48.804;8.330;2023-08-12T07:51:37;38.30;49.10
3550;DHT22;45572;48.804;8.330;2023-08-12T07:54:05;38.90;47.90
3550;DHT22;45572;48.804;8.330;2023-08-12T07:56:33;39.10;47.50
3550;DHT22;45572;48.804;8.330;2023-08-12T07:59:01;37.60;49.90
3550;DHT22;45572;48.804;8.330;2023-08-12T08:01:29;37.00;51.40
3550;DHT22;45572;48.804;8.330;2023-08-12T08:03:58;36.90;51.30
3550;DHT22;45572;48.804;8.330;2023-08-12T08:06:26;38.20;51.20
3550;DHT22;45572;48.804;8.330;2023-08-12T08:08:55;38.90;50.30
3550;DHT22;45572;48.804;8.330;2023-08-12T08:11:24;40.10;47.90
3550;DHT22;45572;48.804;8.330;2023-08-12T08:13:52;41.10;46.30
3550;DHT22;45572;48.804;8.330;2023-08-12T08:16:20;41.00;44.90
3550;DHT22;45572;48.804;8.330;2023-08-12T08:18:48;40.10;45.50
3550;DHT22;45572;48.804;8.330;2023-08-12T08:21:17;39.30;47.60
3550;DHT22;45572;48.804;8.330;2023-08-12T08:23:45;38.40;48.50
3550;DHT22;45572;48.804;8.330;2023-08-12T08:26:15;37.80;50.30
3550;DHT22;45572;48.804;8.330;2023-08-12T08:28:43;37.70;52.10
3550;DHT22;45572;48.804;8.330;2023-08-12T08:31:11;38.60;51.00
3550;DHT22;45572;48.804;8.330;2023-08-12T08:33:41;39.50;47.20
3550;DHT22;45572;48.804;8.330;2023-08-12T08:36:11;40.60;48.20
3550;DHT22;45572;48.804;8.330;2023-08-12T08:38:40;41.60;46.20
3550;DHT22;45572;48.804;8.330;2023-08-12T08:41:09;42.60;46.50
3550;DHT22;45572;48.804;8.330;2023-08-12T08:43:38;43.20;44.70
3550;DHT22;45572;48.804;8.330;2023-08-12T08:46:10;43.70;42.90
3550;DHT22;45572;48.804;8.330;2023-08-12T08:48:41;44.40;42.90
3550;DHT22;45572;48.804;8.330;2023-08-12T08:51:10;44.80;40.90
3550;DHT22;45572;48.804;8.330;2023-08-12T08:53:40;45.10;41.50
3550;DHT22;45572;48.804;8.330;2023-08-12T08:56:11;44.90;41.60
3550;DHT22;45572;48.804;8.330;2023-08-12T08:58:41;44.10;42.20
3550;DHT22;45572;48.804;8.330;2023-08-12T09:01:09;43.60;42.60
3550;DHT22;45572;48.804;8.330;2023-08-12T09:03:41;42.90;43.20
3550;DHT22;45572;48.804;8.330;2023-08-12T09:06:10;42.60;44.30
3550;DHT22;45572;48.804;8.330;2023-08-12T09:08:42;42.50;44.60
3550;DHT22;45572;48.804;8.330;2023-08-12T09:11:12;42.10;45.40
3550;DHT22;45572;48.804;8.330;2023-08-12T09:13:40;41.50;46.80
3550;DHT22;45572;48.804;8.330;2023-08-12T09:16:08;40.50;48.00
3550;DHT22;45572;48.804;8.330;2023-08-12T09:18:37;39.30;49.60
3550;DHT22;45572;48.804;8.330;2023-08-12T09:21:05;38.40;51.60
3550;DHT22;45572;48.804;8.330;2023-08-12T09:23:34;37.40;53.00
3550;DHT22;45572;48.804;8.330;2023-08-12T09:26:12;36.60;54.90
3550;DHT22;45572;48.804;8.330;2023-08-12T09:28:40;36.00;58.00
3550;DHT22;45572;48.804;8.330;2023-08-12T09:31:08;35.70;56.20
3550;DHT22;45572;48.804;8.330;2023-08-12T09:33:39;35.80;56.70
3550;DHT22;45572;48.804;8.330;2023-08-12T09:36:07;36.20;58.30
3550;DHT22;45572;48.804;8.330;2023-08-12T09:38:35;37.90;56.60
3550;DHT22;45572;48.804;8.330;2023-08-12T09:41:04;39.60;53.30
3550;DHT22;45572;48.804;8.330;2023-08-12T09:43:32;40.70;49.60
3550;DHT22;45572;48.804;8.330;2023-08-12T09:46:00;41.30;48.30
3550;DHT22;45572;48.804;8.330;2023-08-12T09:48:30;41.90;47.80
3550;DHT22;45572;48.804;8.330;2023-08-12T09:50:58;42.10;47.20
3550;DHT22;45572;48.804;8.330;2023-08-12T09:53:26;42.40;47.30
3550;DHT22;45572;48.804;8.330;2023-08-12T09:55:55;43.10;44.50
3550;DHT22;45572;48.804;8.330;2023-08-12T09:58:27;43.80;44.90
3550;DHT22;45572;48.804;8.330;2023-08-12T10:00:57;44.40;44.90
3550;DHT22;45572;48.804;8.330;2023-08-12T10:03:26;44.30;45.20
3550;DHT22;45572;48.804;8.330;2023-08-12T10:05:54;44.00;43.10
3550;DHT22;45572;48.804;8.330;2023-08-12T10:08:23;44.10;44.00
3550;DHT22;45572;48.804;8.330;2023-08-12T10:10:51;44.60;45.90
3550;DHT22;45572;48.804;8.330;2023-08-12T10:13:39;45.10;43.60
3550;DHT22;45572;48.804;8.330;2023-08-12T10:16:08;45.00;43.50
3550;DHT22;45572;48.804;8.330;2023-08-12T10:18:39;45.40;43.10
3550;DHT22;45572;48.804;8.330;2023-08-12T10:21:09;45.90;42.00
3550;DHT22;45572;48.804;8.330;2023-08-12T10:23:38;45.90;42.10
3550;DHT22;45572;48.804;8.330;2023-08-12T10:26:06;46.50;41.80
3550;DHT22;45572;48.804;8.330;2023-08-12T10:28:34;46.80;42.20
3550;DHT22;45572;48.804;8.330;2023-08-12T10:31:06;46.90;42.30
3550;DHT22;45572;48.804;8.330;2023-08-12T10:33:36;46.80;40.90
3550;DHT22;45572;48.804;8.330;2023-08-12T10:36:05;45.10;42.30
3550;DHT22;45572;48.804;8.330;2023-08-12T10:38:33;43.50;44.70
3550;DHT22;45572;48.804;8.330;2023-08-12T10:41:16;42.50;44.90
3550;DHT22;45572;48.804;8.330;2023-08-12T10:43:52;39.90;47.50
3550;DHT22;45572;48.804;8.330;2023-08-12T10:46:23;38.40;50.30
3550;DHT22;45572;48.804;8.330;2023-08-12T10:49:02;36.20;53.40
3550;DHT22;45572;48.804;8.330;2023-08-12T10:51:46;34.90;56.00
3550;DHT22;45572;48.804;8.330;2023-08-12T10:54:16;33.60;58.30
3550;DHT22;45572;48.804;8.330;2023-08-12T10:57:07;32.60;63.00
3550;DHT22;45572;48.804;8.330;2023-08-12T10:59:53;31.80;64.70
3550;DHT22;45572;48.804;8.330;2023-08-12T11:02:26;31.00;69.00
3550;DHT22;45572;48.804;8.330;2023-08-12T11:05:00;30.70;69.50
3550;DHT22;45572;48.804;8.330;2023-08-12T11:07:32;30.80;70.70
3550;DHT22;45572;48.804;8.330;2023-08-12T11:10:09;31.00;69.50
3550;DHT22;45572;48.804;8.330;2023-08-12T11:12:39;31.00;68.90
3550;DHT22;45572;48.804;8.330;2023-08-12T11:15:07;31.00;69.40
3550;DHT22;45572;48.804;8.330;2023-08-12T11:17:40;31.20;68.90
3550;DHT22;45572;48.804;8.330;2023-08-12T11:20:10;31.10;68.10
3550;DHT22;45572;48.804;8.330;2023-08-12T11:22:39;30.90;69.60
3550;DHT22;45572;48.804;8.330;2023-08-12T11:25:09;31.00;70.10
3550;DHT22;45572;48.804;8.330;2023-08-12T11:27:39;30.80;69.70
3550;DHT22;45572;48.804;8.330;2023-08-12T11:30:08;30.80;70.50
3550;DHT22;45572;48.804;8.330;2023-08-12T11:32:39;30.70;70.10
3550;DHT22;45572;48.804;8.330;2023-08-12T11:35:11;30.80;70.20
3550;DHT22;45572;48.804;8.330;2023-08-12T11:37:44;30.70;70.90
3550;DHT22;45572;48.804;8.330;2023-08-12T11:40:13;30.60;70.30
3550;DHT22;45572;48.804;8.330;2023-08-12T11:42:43;30.60;69.80
3550;DHT22;45572;48.804;8.330;2023-08-12T11:45:13;30.60;71.30
3550;DHT22;45572;48.804;8.330;2023-08-12T11:47:45;30.60;69.70
3550;DHT22;45572;48.804;8.330;2023-08-12T11:50:20;30.70;70.20
3550;DHT22;45572;48.804;8.330;2023-08-12T11:52:50;30.80;72.40
3550;DHT22;45572;48.804;8.330;2023-08-12T11:55:18;30.90;72.90
3550;DHT22;45572;48.804;8.330;2023-08-12T11:57:46;31.10;72.70
3550;DHT22;45572;48.804;8.330;2023-08-12T12:00:15;31.40;70.30
3550;DHT22;45572;48.804;8.330;2023-08-12T12:02:50;31.50;68.80
3550;DHT22;45572;48.804;8.330;2023-08-12T12:05:20;32.20;67.30
3550;DHT22;45572;48.804;8.330;2023-08-12T12:07:51;33.10;64.20
3550;DHT22;45572;48.804;8.330;2023-08-12T12:10:20;34.10;62.50
3550;DHT22;45572;48.804;8.330;2023-08-12T12:12:48;35.10;60.10
3550;DHT22;45572;48.804;8.330;2023-08-12T12:15:16;35.60;57.70
3550;DHT22;45572;48.804;8.330;2023-08-12T12:17:46;36.60;58.30
3550;DHT22;45572;48.804;8.330;2023-08-12T12:20:16;36.90;55.40
3550;DHT22;45572;48.804;8.330;2023-08-12T12:22:44;36.40;55.90
3550;DHT22;45572;48.804;8.330;2023-08-12T12:25:14;36.50;60.00
3550;DHT22;45572;48.804;8.330;2023-08-12T12:27:45;37.20;58.10
3550;DHT22;45572;48.804;8.330;2023-08-12T12:30:14;36.60;56.10
3550;DHT22;45572;48.804;8.330;2023-08-12T12:32:42;36.30;56.50
3550;DHT22;45572;48.804;8.330;2023-08-12T12:35:12;36.20;57.60
3550;DHT22;45572;48.804;8.330;2023-08-12T12:37:41;36.30;58.70
3550;DHT22;45572;48.804;8.330;2023-08-12T12:40:10;36.00;59.00
3550;DHT22;45572;48.804;8.330;2023-08-12T12:42:39;35.60;60.60
3550;DHT22;45572;48.804;8.330;2023-08-12T12:45:08;35.20;60.70
3550;DHT22;45572;48.804;8.330;2023-08-12T12:47:36;34.90;61.10
3550;DHT22;45572;48.804;8.330;2023-08-12T12:50:05;34.50;62.20
3550;DHT22;45572;48.804;8.330;2023-08-12T12:52:33;34.10;59.40
3550;DHT22;45572;48.804;8.330;2023-08-12T12:55:03;33.10;62.10
3550;DHT22;45572;48.804;8.330;2023-08-12T12:57:31;32.80;66.30
3550;DHT22;45572;48.804;8.330;2023-08-12T12:59:59;32.70;66.00
3550;DHT22;45572;48.804;8.330;2023-08-12T13:02:27;32.80;66.20
3550;DHT22;45572;48.804;8.330;2023-08-12T13:04:55;32.70;66.60
3550;DHT22;45572;48.804;8.330;2023-08-12T13:07:23;32.80;66.60
3550;DHT22;45572;48.804;8.330;2023-08-12T13:09:51;32.60;64.60
3550;DHT22;45572;48.804;8.330;2023-08-12T13:12:20;32.60;65.00
3550;DHT22;45572;48.804;8.330;2023-08-12T13:14:48;32.60;66.80
3550;DHT22;45572;48.804;8.330;2023-08-12T13:17:15;32.50;64.40
3550;DHT22;45572;48.804;8.330;2023-08-12T13:19:43;32.70;64.10
3550;DHT22;45572;48.804;8.330;2023-08-12T13:22:11;32.90;65.90
3550;DHT22;45572;48.804;8.330;2023-08-12T13:24:39;32.60;62.00
3550;DHT22;45572;48.804;8.330;2023-08-12T13:27:07;32.50;62.20
3550;DHT22;45572;48.804;8.330;2023-08-12T13:29:37;32.50;64.50
3550;DHT22;45572;48.804;8.330;2023-08-12T13:32:04;32.60;62.00
3550;DHT22;45572;48.804;8.330;2023-08-12T13:34:32;32.50;61.80
3550;DHT22;45572;48.804;8.330;2023-08-12T13:37:00;32.50;62.30
3550;DHT22;45572;48.804;8.330;2023-08-12T13:39:28;32.70;63.50
3550;DHT22;45572;48.804;8.330;2023-08-12T13:41:55;32.80;63.30
3550;DHT22;45572;48.804;8.330;2023-08-12T13:44:23;32.70;61.50
3550;DHT22;45572;48.804;8.330;2023-08-12T13:46:54;32.50;63.40
3550;DHT22;45572;48.804;8.330;2023-08-12T13:49:22;32.40;63.70
3550;DHT22;45572;48.804;8.330;2023-08-12T13:51:50;32.20;64.90
3550;DHT22;45572;48.804;8.330;2023-08-12T13:54:18;32.20;64.40
3550;DHT22;45572;48.804;8.330;2023-08-12T13:56:46;32.00;67.20
3550;DHT22;45572;48.804;8.330;2023-08-12T13:59:15;32.00;67.70
3550;DHT22;45572;48.804;8.330;2023-08-12T14:01:42;31.80;66.30
3550;DHT22;45572;48.804;8.330;2023-08-12T14:04:12;32.10;67.10
3550;DHT22;45572;48.804;8.330;2023-08-12T14:06:40;32.00;67.00
3550;DHT22;45572;48.804;8.330;2023-08-12T14:09:09;32.10;64.60
3550;DHT22;45572;48.804;8.330;2023-08-12T14:11:38;32.20;66.10
3550;DHT22;45572;48.804;8.330;2023-08-12T14:14:06;32.20;66.10
3550;DHT22;45572;48.804;8.330;2023-08-12T14:16:35;32.10;66.50
3550;DHT22;45572;48.804;8.330;2023-08-12T14:19:03;31.80;66.40
3550;DHT22;45572;48.804;8.330;2023-08-12T14:21:32;31.40;66.90
3550;DHT22;45572;48.804;8.330;2023-08-12T14:24:00;31.00;68.50
3550;DHT22;45572;48.804;8.330;2023-08-12T14:26:32;30.80;68.60
3550;DHT22;45572;48.804;8.330;2023-08-12T14:29:01;30.60;70.00
3550;DHT22;45572;48.804;8.330;2023-08-12T14:31:28;30.20;74.00
3550;DHT22;45572;48.804;8.330;2023-08-12T14:33:56;30.00;75.50
3550;DHT22;45572;48.804;8.330;2023-08-12T14:36:24;29.60;76.30
3550;DHT22;45572;48.804;8.330;2023-08-12T14:38:53;29.40;77.40
3550;DHT22;45572;48.804;8.330;2023-08-12T14:41:21;29.20;79.30
3550;DHT22;45572;48.804;8.330;2023-08-12T14:43:48;28.90;80.00
3550;DHT22;45572;48.804;8.330;2023-08-12T14:46:16;28.50;82.60
3550;DHT22;45572;48.804;8.330;2023-08-12T14:48:44;28.20;84.10
3550;DHT22;45572;48.804;8.330;2023-08-12T14:51:12;27.90;84.70
3550;DHT22;45572;48.804;8.330;2023-08-12T14:53:40;27.40;85.30
3550;DHT22;45572;48.804;8.330;2023-08-12T14:56:10;26.70;86.90
3550;DHT22;45572;48.804;8.330;2023-08-12T14:58:38;26.10;88.60
3550;DHT22;45572;48.804;8.330;2023-08-12T15:01:06;25.70;90.30
3550;DHT22;45572;48.804;8.330;2023-08-12T15:03:34;25.40;91.80
3550;DHT22;45572;48.804;8.330;2023-08-12T15:06:02;25.10;92.40
3550;DHT22;45572;48.804;8.330;2023-08-12T15:08:31;25.10;92.80
3550;DHT22;45572;48.804;8.330;2023-08-12T15:10:59;25.10;93.40
3550;DHT22;45572;48.804;8.330;2023-08-12T15:13:28;25.10;92.70
3550;DHT22;45572;48.804;8.330;2023-08-12T15:15:55;25.10;93.00
3550;DHT22;45572;48.804;8.330;2023-08-12T15:18:24;25.10;93.40
3550;DHT22;45572;48.804;8.330;2023-08-12T15:20:52;25.10;92.80
3550;DHT22;45572;48.804;8.330;2023-08-12T15:23:20;25.10;92.60
3550;DHT22;45572;48.804;8.330;2023-08-12T15:25:47;25.00;93.10
3550;DHT22;45572;48.804;8.330;2023-08-12T15:28:15;25.00;93.50
3550;DHT22;45572;48.804;8.330;2023-08-12T15:30:47;25.00;93.30
3550;DHT22;45572;48.804;8.330;2023-08-12T15:33:15;24.80;92.60
3550;DHT22;45572;48.804;8.330;2023-08-12T15:35:43;24.70;93.00
3550;DHT22;45572;48.804;8.330;2023-08-12T15:38:11;24.50;93.00
3550;DHT22;45572;48.804;8.330;2023-08-12T15:40:38;24.50;93.40
3550;DHT22;45572;48.804;8.330;2023-08-12T15:43:06;24.60;93.00
3550;DHT22;45572;48.804;8.330;2023-08-12T15:45:36;24.50;92.90
3550;DHT22;45572;48.804;8.330;2023-08-12T15:48:07;24.60;93.40
3550;DHT22;45572;48.804;8.330;2023-08-12T15:50:35;24.60;93.20
3550;DHT22;45572;48.804;8.330;2023-08-12T15:53:06;24.70;93.00
3550;DHT22;45572;48.804;8.330;2023-08-12T15:55:34;24.80;92.50
3550;DHT22;45572;48.804;8.330;2023-08-12T15:58:02;24.90;92.70